Time;durP1;ratioP1;P1;durP2;ratioP2;P2;SDS_P1;SDS_P2;PMS_P1;PMS_P2;Temp;Humidity;BMP_temperature;BMP_pressure;BME280_temperature;BME280_humidity;BME280_pressure;Samples;Min_cycle;Max_cycle;Signal;HPM_P1;HPM_P2
2023/06/25 00:04:00;;;;;;;13.75;7.60;;;;;;;17.19;100.00;102110.31;10419647;28;20042;-70
2023/06/25 00:09:00;;;;;;;8.65;6.65;;;;;;;17.22;100.00;102115.34;10410584;28;20041;-70
2023/06/25 00:14:01;;;;;;;10.88;6.78;;;;;;;17.11;100.00;102106.09;10419140;28;20048;-69
2023/06/25 00:19:02;;;;;;;11.20;6.95;;;;;;;17.09;100.00;102122.22;10418765;28;20038;-69
2023/06/25 00:24:03;;;;;;;14.35;7.60;;;;;;;17.03;100.00;102118.59;10416923;28;20037;-69
2023/06/25 00:29:04;;;;;;;14.35;8.10;;;;;;;17.00;100.00;102115.50;10416753;28;20156;-69
2023/06/25 00:34:04;;;;;;;12.32;7.82;;;;;;;16.94;100.00;102111.81;10432078;28;20048;-70
2023/06/25 00:39:05;;;;;;;12.13;8.05;;;;;;;16.89;100.00;102109.03;10432814;28;20488;-70
2023/06/25 00:44:06;;;;;;;12.77;8.48;;;;;;;16.30;100.00;102016.22;10418902;28;20076;-70
2023/06/25 00:49:06;;;;;;;21.23;11.57;;;;;;;16.78;100.00;102096.94;10432967;28;20034;-70
2023/06/25 00:54:07;;;;;;;14.38;8.85;;;;;;;16.72;100.00;102093.28;10417966;28;20068;-69
2023/06/25 00:59:07;;;;;;;18.23;9.98;;;;;;;16.68;100.00;102094.94;10417723;28;20071;-71
2023/06/25 01:04:33;;;;;;;16.95;9.93;;;;;;;16.62;100.00;102093.22;10431411;28;20082;-70
2023/06/25 01:09:33;;;;;;;18.73;10.93;;;;;;;16.57;100.00;102084.81;10431300;28;20521;-70
2023/06/25 01:14:34;;;;;;;17.40;10.63;;;;;;;16.45;100.00;102073.84;10417728;28;20037;-68
2023/06/25 01:19:35;;;;;;;16.00;9.98;;;;;;;16.51;100.00;102092.25;10415246;28;20038;-70
2023/06/25 01:24:36;;;;;;;16.63;10.30;;;;;;;16.45;100.00;102084.16;10416515;28;20054;-71
2023/06/25 01:29:38;;;;;;;15.45;9.57;;;;;;;16.39;100.00;102080.50;10413091;28;20053;-70
2023/06/25 01:34:38;;;;;;;15.23;9.52;;;;;;;16.36;100.00;102083.81;10414342;28;20037;-70
2023/06/25 01:39:39;;;;;;;22.95;10.02;;;;;;;16.34;100.00;102081.28;10416626;28;20052;-70
2023/06/25 01:44:40;;;;;;;16.10;10.40;;;;;;;16.29;100.00;102072.91;10416770;28;20445;-70
2023/06/25 01:49:40;;;;;;;20.25;10.38;;;;;;;16.25;100.00;102068.16;10415968;28;20097;-70
2023/06/25 01:54:40;;;;;;;15.07;9.90;;;;;;;16.20;100.00;102056.97;10415115;28;20061;-69
2023/06/25 01:59:41;;;;;;;15.05;9.45;;;;;;;16.16;100.00;102056.66;10414882;28;20269;-70
2023/06/25 02:04:41;;;;;;;18.52;11.88;;;;;;;16.00;100.00;102035.38;10414838;28;20112;-67
2023/06/25 02:09:42;;;;;;;16.95;10.02;;;;;;;16.12;100.00;102044.38;10412696;28;20041;-69
2023/06/25 02:14:42;;;;;;;20.77;12.10;;;;;;;16.08;100.00;102037.69;10414219;28;20037;-70
2023/06/25 02:19:43;;;;;;;24.23;12.63;;;;;;;16.02;100.00;102033.16;10413833;28;20037;-70
2023/06/25 02:24:43;;;;;;;21.08;11.68;;;;;;;16.02;100.00;102028.47;10413751;28;20037;-70
2023/06/25 02:29:44;;;;;;;23.65;14.52;;;;;;;16.02;100.00;102024.84;10413752;28;20691;-70
2023/06/25 02:34:44;;;;;;;23.85;13.75;;;;;;;16.00;100.00;102019.56;10412672;28;20030;-70
2023/06/25 02:39:45;;;;;;;22.52;13.13;;;;;;;15.99;100.00;102012.31;10412778;28;20050;-69
2023/06/25 02:44:45;;;;;;;21.20;12.45;;;;;;;15.99;100.00;102005.94;10412018;28;20033;-70
2023/06/25 02:49:46;;;;;;;24.33;13.90;;;;;;;15.97;100.00;101997.03;10414140;28;20042;-71
2023/06/25 02:54:46;;;;;;;22.23;13.00;;;;;;;15.94;100.00;101992.84;10413569;28;20049;-70
2023/06/25 02:59:47;;;;;;;23.30;12.25;;;;;;;15.91;100.00;102005.28;10413344;28;20451;-70
2023/06/25 03:04:47;;;;;;;20.75;12.68;;;;;;;15.86;100.00;101991.38;10412685;28;20068;-69
2023/06/25 03:09:48;;;;;;;21.33;12.52;;;;;;;15.88;100.00;102000.28;10412279;28;20136;-71
2023/06/25 03:14:48;;;;;;;24.70;12.48;;;;;;;15.85;100.00;102000.78;10412113;28;20049;-69
2023/06/25 03:19:49;;;;;;;22.15;13.32;;;;;;;15.77;100.00;101987.38;10413200;28;20037;-70
2023/06/25 03:24:49;;;;;;;22.33;13.25;;;;;;;15.77;100.00;101976.28;10427357;28;20055;-69
2023/06/25 03:29:50;;;;;;;25.05;13.57;;;;;;;15.84;100.00;101993.56;10420032;28;20038;-70
2023/06/25 03:34:51;;;;;;;22.00;13.82;;;;;;;15.87;100.00;101992.22;10411787;28;20046;-69
2023/06/25 03:39:52;;;;;;;21.63;13.43;;;;;;;15.89;100.00;101988.06;10413838;28;20521;-69
2023/06/25 03:44:53;;;;;;;23.83;12.77;;;;;;;15.91;100.00;101977.53;10411561;28;20102;-69
2023/06/25 03:49:54;;;;;;;23.33;13.30;;;;;;;15.91;100.00;101976.69;10410355;28;20232;-69
2023/06/25 03:54:54;;;;;;;22.55;12.63;;;;;;;16.02;100.00;101972.94;10417224;28;20037;-69
2023/06/25 03:59:54;;;;;;;21.77;12.25;;;;;;;16.10;100.00;101979.91;10384816;28;20038;-70
2023/06/25 04:04:55;;;;;;;23.08;12.68;;;;;;;16.17;100.00;101977.78;10420488;28;20045;-69
2023/06/25 04:09:55;;;;;;;21.63;13.55;;;;;;;16.27;100.00;101979.81;10419825;28;20052;-70
2023/06/25 04:14:56;;;;;;;19.52;11.50;;;;;;;16.37;100.00;101981.78;10418594;28;20053;-71
2023/06/25 04:19:57;;;;;;;23.23;12.50;;;;;;;16.45;100.00;101972.97;10419433;28;20098;-69
2023/06/25 04:24:57;;;;;;;20.63;11.32;;;;;;;16.52;100.00;101970.81;10419287;28;20090;-70
2023/06/25 04:29:58;;;;;;;18.13;11.65;;;;;;;16.59;100.00;101970.56;10417695;28;20046;-70
2023/06/25 04:34:58;;;;;;;19.00;10.88;;;;;;;16.60;100.00;101972.22;10411463;28;20096;-70
2023/06/25 04:40:05;;;;;;;18.13;11.88;;;;;;;16.75;100.00;101964.81;10433921;28;20057;-70
2023/06/25 04:45:06;;;;;;;;;;;;;;;16.83;100.00;101957.94;10419032;28;20445;-70
2023/06/25 04:50:06;;;;;;;22.13;12.15;;;;;;;16.90;100.00;101960.47;10418112;28;19917;-70
2023/06/25 04:55:07;;;;;;;18.25;11.80;;;;;;;16.99;100.00;101964.44;10416312;28;20041;-69
2023/06/25 05:00:08;;;;;;;16.85;10.30;;;;;;;17.07;100.00;101954.72;10417573;28;20156;-70
2023/06/25 05:05:09;;;;;;;19.85;11.23;;;;;;;17.18;100.00;101956.44;10410564;28;20091;-69
2023/06/25 05:10:09;;;;;;;17.80;10.68;;;;;;;17.30;100.00;101958.97;10417059;28;20128;-69
2023/06/25 05:15:10;;;;;;;17.35;10.43;;;;;;;17.35;100.00;101961.78;10417405;28;20048;-69
2023/06/25 05:20:11;;;;;;;18.25;9.93;;;;;;;17.48;100.00;101955.69;10414778;28;20037;-69
2023/06/25 05:25:11;;;;;;;20.00;8.85;;;;;;;17.62;100.00;101966.31;10416946;28;20041;-70
2023/06/25 05:30:12;;;;;;;16.10;10.25;;;;;;;17.75;100.00;101954.63;10416768;28;20053;-69
2023/06/25 05:35:12;;;;;;;14.75;8.68;;;;;;;17.88;100.00;101948.56;10417169;28;20076;-69
2023/06/25 05:40:13;;;;;;;15.75;9.75;;;;;;;18.01;100.00;101935.19;10417152;28;20037;-70
2023/06/25 05:45:14;;;;;;;13.32;8.80;;;;;;;18.23;100.00;101944.09;10398172;28;20029;-70
2023/06/25 05:50:14;;;;;;;14.20;9.25;;;;;;;18.44;100.00;101932.88;10415530;28;20034;-70
2023/06/25 05:55:15;;;;;;;13.70;8.68;;;;;;;17.87;100.00;101807.59;10415609;28;20105;-70
2023/06/25 06:00:15;;;;;;;14.88;9.75;;;;;;;19.03;100.00;101918.22;10414516;28;20049;-69
2023/06/25 06:05:16;;;;;;;22.85;9.80;;;;;;;19.41;100.00;101918.59;10416522;28;20053;-70
2023/06/25 06:10:17;;;;;;;15.68;10.25;;;;;;;19.80;100.00;101912.19;10414655;28;20053;-70
2023/06/25 06:15:17;;;;;;;14.25;9.27;;;;;;;20.15;100.00;101904.63;10412472;28;20119;-69
2023/06/25 06:20:18;;;;;;;15.70;9.38;;;;;;;20.58;100.00;101917.91;10412907;28;20048;-70
2023/06/25 06:25:18;;;;;;;12.70;8.80;;;;;;;20.98;100.00;101912.97;10414692;28;20045;-69
2023/06/25 06:30:19;;;;;;;15.27;10.02;;;;;;;21.38;100.00;101908.78;10414990;28;20072;-70
2023/06/25 06:35:20;;;;;;;15.10;9.32;;;;;;;21.79;100.00;101896.97;10411733;28;20037;-70
2023/06/25 06:40:21;;;;;;;14.48;9.85;;;;;;;21.99;100.00;101884.56;10396870;28;20055;-69
2023/06/25 06:45:21;;;;;;;13.32;9.25;;;;;;;22.34;100.00;101896.28;10417805;28;20080;-70
2023/06/25 06:50:21;;;;;;;14.57;9.48;;;;;;;22.54;100.00;101881.03;10392657;28;20034;-70
2023/06/25 06:55:22;;;;;;;16.90;9.20;;;;;;;22.68;100.00;101867.84;10392031;28;20037;-70
2023/06/25 07:00:22;;;;;;;12.85;9.43;;;;;;;22.94;100.00;101875.72;10390945;28;20053;-70
2023/06/25 07:05:23;;;;;;;12.38;9.10;;;;;;;23.12;100.00;101859.91;10393080;28;20133;-70
2023/06/25 07:10:24;;;;;;;15.43;9.98;;;;;;;23.26;100.00;101868.31;10412763;28;20037;-70
2023/06/25 07:15:24;;;;;;;12.73;9.75;;;;;;;23.00;100.00;101793.00;10392364;28;20038;-69
2023/06/25 07:20:24;;;;;;;17.00;9.68;;;;;;;23.69;100.00;101865.00;10406060;28;20042;-70
2023/06/25 07:25:25;;;;;;;16.38;11.63;;;;;;;24.02;100.00;101856.31;10392509;28;20038;-71
2023/06/25 07:30:26;;;;;;;16.70;10.85;;;;;;;24.32;100.00;101861.09;10400736;28;20038;-70
2023/06/25 07:35:26;;;;;;;15.20;10.60;;;;;;;24.53;100.00;101846.47;10401457;28;20281;-70
2023/06/25 07:40:27;;;;;;;12.55;9.50;;;;;;;24.66;100.00;101847.50;10402857;28;20048;-71
2023/06/25 07:45:27;;;;;;;15.77;10.93;;;;;;;24.84;100.00;101837.13;10417674;28;20037;-69
2023/06/25 07:50:28;;;;;;;13.90;10.70;;;;;;;25.14;100.00;101843.81;10420399;28;20052;-71
2023/06/25 07:55:28;;;;;;;15.90;10.02;;;;;;;25.28;100.00;101833.22;10420327;28;20040;-69
2023/06/25 08:00:29;;;;;;;15.27;11.15;;;;;;;25.27;100.00;101819.47;10420100;28;20083;-69
2023/06/25 08:05:29;;;;;;;12.68;10.32;;;;;;;25.54;100.00;101829.56;10435257;28;20068;-69
2023/06/25 08:10:30;;;;;;;12.45;11.15;;;;;;;25.75;100.00;101833.31;10410817;28;20057;-67
2023/06/25 08:15:30;;;;;;;15.98;11.63;;;;;;;26.05;100.00;101827.00;10406275;28;20030;-70
2023/06/25 08:20:31;;;;;;;12.00;10.20;;;;;;;26.07;100.00;101808.56;10397702;28;20034;-70
2023/06/25 08:25:31;;;;;;;13.45;10.75;;;;;;;26.23;100.00;101811.66;10416319;28;20072;-70
2023/06/25 08:30:32;;;;;;;13.68;9.50;;;;;;;26.53;100.00;101820.13;10417407;28;20038;-68
2023/06/25 08:35:32;;;;;;;10.63;9.25;;;;;;;26.40;100.00;101807.06;10449636;28;20033;-70
2023/06/25 08:40:34;;;;;;;11.20;8.23;;;;;;;26.62;100.00;101794.69;10445198;28;20480;-69
2023/06/25 08:45:34;;;;;;;12.35;9.27;;;;;;;27.01;100.00;101790.59;10440056;28;20057;-69
2023/06/25 08:50:35;;;;;;;10.95;9.43;;;;;;;27.25;100.00;101783.47;10458681;28;20033;-69
2023/06/25 08:55:35;;;;;;;13.13;9.98;;;;;;;27.27;100.00;101775.44;10439131;28;20033;-69
2023/06/25 09:00:36;;;;;;;9.65;8.63;;;;;;;27.17;100.00;101735.09;10440437;28;20401;-69
2023/06/25 09:05:36;;;;;;;8.65;7.75;;;;;;;27.65;100.00;101780.88;10458735;28;20040;-68
2023/06/25 09:10:37;;;;;;;12.10;9.85;;;;;;;27.51;100.00;101761.41;10470183;28;20061;-70
2023/06/25 09:15:41;;;;;;;11.95;8.52;;;;;;;27.46;100.00;101770.09;10467514;28;20036;-70
2023/06/25 09:20:46;;;;;;;8.40;6.93;;;;;;;27.30;100.00;101761.44;10452080;28;20416;-72
2023/06/25 09:25:47;;;;;;;8.10;5.70;;;;;;;27.63;100.00;101756.94;10453447;28;20072;-70
2023/06/25 09:30:47;;;;;;;8.52;6.55;;;;;;;28.04;100.00;101755.16;10451964;28;20512;-73
2023/06/25 09:35:48;;;;;;;8.95;6.05;;;;;;;28.21;100.00;101743.59;10457753;28;20037;-72
2023/06/25 09:40:48;;;;;;;5.72;4.78;;;;;;;28.29;97.31;101722.00;10456726;28;20032;-73
2023/06/25 09:45:49;;;;;;;7.43;4.53;;;;;;;28.44;98.67;101726.94;10454131;28;20025;-73
2023/06/25 09:50:50;;;;;;;4.78;3.88;;;;;;;28.64;85.22;101696.00;10435925;28;20493;-74
2023/06/25 09:55:50;;;;;;;4.78;3.80;;;;;;;28.69;84.79;101699.44;10440988;28;20049;-72
2023/06/25 10:00:51;;;;;;;6.82;4.55;;;;;;;28.92;82.20;101696.00;10455079;28;20053;-71
2023/06/25 10:05:52;;;;;;;6.13;4.10;;;;;;;28.79;84.81;101700.91;10454098;28;20068;-75
2023/06/25 10:10:58;;;;;;;6.00;4.43;;;;;;;28.91;84.21;101706.53;10422371;28;20057;-73
2023/06/25 10:16:02;;;;;;;5.15;3.78;;;;;;;29.17;82.58;101696.78;10455086;28;20115;-78
2023/06/25 10:21:03;;;;;;;5.85;3.67;;;;;;;29.23;84.63;101695.34;10452498;28;20082;-73
2023/06/25 10:26:03;;;;;;;7.25;4.10;;;;;;;29.34;84.97;101695.63;10454579;28;20516;-73
2023/06/25 10:31:13;;;;;;;5.13;4.07;;;;;;;29.57;81.80;101676.78;10455308;28;20489;-74
2023/06/25 10:36:14;;;;;;;5.07;3.45;;;;;;;29.72;81.50;101674.34;10437027;28;20048;-72
2023/06/25 10:41:14;;;;;;;4.30;3.63;;;;;;;29.81;79.06;101651.44;10454481;28;20056;-72
2023/06/25 10:46:15;;;;;;;5.55;4.00;;;;;;;29.52;77.56;101654.38;10453458;28;20040;-72
2023/06/25 10:51:15;;;;;;;6.50;4.93;;;;;;;29.56;78.71;101652.47;10453940;28;20052;-70
2023/06/25 10:56:16;;;;;;;5.10;4.18;;;;;;;29.80;79.74;101647.78;10455675;28;20040;-72
2023/06/25 11:01:16;;;;;;;5.22;4.18;;;;;;;30.07;81.08;101648.84;10436209;28;20090;-72
2023/06/25 11:06:17;;;;;;;4.53;3.97;;;;;;;30.23;79.70;101620.41;10454510;28;20040;-69
2023/06/25 11:11:20;;;;;;;4.85;3.33;;;;;;;30.47;73.08;101604.31;10434984;28;20077;-73
2023/06/25 11:16:21;;;;;;;3.35;2.85;;;;;;;30.58;74.03;101614.72;10453888;28;20498;-72
2023/06/25 11:21:21;;;;;;;4.10;3.15;;;;;;;30.68;72.69;101613.28;10423548;28;20037;-76
2023/06/25 11:26:22;;;;;;;4.78;3.10;;;;;;;30.70;71.88;101602.38;10440978;28;20053;-75
2023/06/25 11:31:22;;;;;;;3.92;3.15;;;;;;;30.81;71.63;101601.75;10387980;28;20052;-75
2023/06/25 11:36:23;;;;;;;3.38;2.50;;;;;;;30.89;69.31;101598.72;10390179;28;20053;-77
2023/06/25 11:41:27;;;;;;;4.13;2.92;;;;;;;31.05;69.25;101589.22;10388687;28;20056;-72
2023/06/25 11:46:27;;;;;;;4.75;2.60;;;;;;;31.26;66.50;101583.13;10389028;28;20037;-77
2023/06/25 11:51:28;;;;;;;3.92;2.80;;;;;;;31.74;67.96;101567.28;10370933;28;20046;-70
2023/06/25 11:56:28;;;;;;;3.97;3.25;;;;;;;32.25;65.67;101556.59;10388163;28;20049;-73
2023/06/25 12:01:29;;;;;;;4.00;2.92;;;;;;;32.62;60.77;101547.31;10388663;28;20120;-73
2023/06/25 12:06:29;;;;;;;3.60;3.13;;;;;;;32.64;61.29;101539.19;10353448;28;20037;-73
2023/06/25 12:11:30;;;;;;;3.88;3.05;;;;;;;33.03;62.17;101547.31;10391003;28;20080;-74
2023/06/25 12:16:31;;;;;;;3.80;3.08;;;;;;;33.51;63.90;101551.03;10400143;28;20045;-74
2023/06/25 12:21:31;;;;;;;5.80;3.15;;;;;;;33.60;60.84;101541.28;10403047;28;20030;-72
2023/06/25 12:26:32;;;;;;;4.20;3.17;;;;;;;33.76;59.32;101528.38;10402947;28;20041;-72
2023/06/25 12:31:32;;;;;;;4.32;3.13;;;;;;;34.45;60.09;101528.72;10393461;28;20049;-76
2023/06/25 12:36:33;;;;;;;3.70;3.17;;;;;;;34.71;56.72;101508.38;10401977;28;20414;-77
2023/06/25 12:41:33;;;;;;;4.55;3.13;;;;;;;34.74;58.00;101513.28;10384659;28;20249;-75
2023/06/25 12:46:34;;;;;;;4.15;3.67;;;;;;;34.79;56.99;101502.66;10402433;28;20506;-71
2023/06/25 12:51:34;;;;;;;3.47;3.10;;;;;;;34.74;56.97;101450.34;10402899;28;20072;-76
2023/06/25 12:56:35;;;;;;;3.53;3.22;;;;;;;34.98;54.88;101476.53;10402108;28;20065;-72
2023/06/25 13:01:35;;;;;;;4.47;3.83;;;;;;;35.14;54.19;101488.41;10400095;28;20041;-71
2023/06/25 13:06:36;;;;;;;5.57;3.83;;;;;;;35.31;55.19;101483.09;10382861;28;20262;-73
2023/06/25 13:11:38;;;;;;;3.63;3.28;;;;;;;35.40;54.71;101483.47;10400657;28;20067;-72
2023/06/25 13:16:39;;;;;;;3.45;2.90;;;;;;;35.81;52.69;101470.72;10401891;28;20050;-73
2023/06/25 13:21:40;;;;;;;4.07;3.40;;;;;;;36.35;53.09;101474.97;10401339;28;20069;-70
2023/06/25 13:26:44;;;;;;;3.47;3.03;;;;;;;36.92;51.45;101458.59;10401319;28;20094;-74
2023/06/25 13:31:45;;;;;;;3.55;3.03;;;;;;;36.60;50.49;101458.84;10398988;28;20044;-71
2023/06/25 13:36:46;;;;;;;5.68;3.63;;;;;;;36.42;52.71;101461.81;10400470;28;20050;-73
2023/06/25 13:41:47;;;;;;;3.70;3.40;;;;;;;36.33;49.19;101445.91;10397035;28;20440;-73
2023/06/25 13:46:47;;;;;;;4.07;3.40;;;;;;;36.75;51.25;101435.41;10456775;28;20033;-71
2023/06/25 13:51:47;;;;;;;4.28;3.88;;;;;;;37.25;50.56;101439.03;10456401;28;20587;-73
2023/06/25 13:56:48;;;;;;;4.60;3.72;;;;;;;37.58;46.75;101422.31;10457663;28;20535;-73
2023/06/25 14:01:48;;;;;;;4.38;3.85;;;;;;;37.40;47.09;101420.44;10463853;28;20508;-77
2023/06/25 14:06:50;;;;;;;4.35;3.42;;;;;;;36.92;47.74;101418.41;10450733;28;20608;-69
2023/06/25 14:11:50;;;;;;;4.30;3.90;;;;;;;37.57;46.00;101407.09;10455662;28;20064;-73
2023/06/25 14:16:51;;;;;;;4.10;3.70;;;;;;;37.45;46.01;101399.03;10449240;28;20087;-71
2023/06/25 14:21:51;;;;;;;4.40;4.00;;;;;;;37.45;45.77;101388.38;10456288;28;20036;-73
2023/06/25 14:26:52;;;;;;;4.25;3.85;;;;;;;37.86;44.48;101386.66;10455828;28;20080;-73
2023/06/25 14:31:52;;;;;;;4.20;3.53;;;;;;;37.86;46.40;101378.84;10455131;28;20037;-71
2023/06/25 14:36:52;;;;;;;4.50;3.70;;;;;;;37.89;44.72;101380.03;10436124;28;20059;-73
2023/06/25 14:41:53;;;;;;;4.75;3.70;;;;;;;38.11;45.51;101383.44;10433686;28;20037;-72
2023/06/25 14:46:53;;;;;;;5.03;4.53;;;;;;;38.28;45.27;101370.03;10421990;28;20044;-71
2023/06/25 14:51:54;;;;;;;4.43;4.03;;;;;;;38.17;45.39;101378.03;10455647;28;20059;-72
2023/06/25 14:56:55;;;;;;;4.22;3.83;;;;;;;38.01;46.77;101378.63;10452447;28;20063;-73
2023/06/25 15:01:55;;;;;;;3.95;3.55;;;;;;;38.12;45.60;101367.81;10436201;28;20041;-74
2023/06/25 15:06:55;;;;;;;4.82;4.32;;;;;;;38.05;46.06;101357.25;10443516;28;20040;-73
2023/06/25 15:11:56;;;;;;;5.25;3.92;;;;;;;38.56;45.82;101357.28;10453270;28;20041;-74
2023/06/25 15:16:56;;;;;;;5.40;4.63;;;;;;;38.42;46.09;101346.00;10452138;28;20041;-79
2023/06/25 15:21:57;;;;;;;4.63;4.15;;;;;;;38.11;46.49;101344.00;10452456;28;20041;-74
2023/06/25 15:26:57;;;;;;;6.03;4.40;;;;;;;38.24;46.30;101335.56;10452820;28;20120;-73
2023/06/25 15:32:01;;;;;;;5.15;4.65;;;;;;;38.62;46.51;101335.41;10453731;28;20037;-72
2023/06/25 15:37:03;;;;;;;7.03;5.25;;;;;;;38.07;46.33;101330.94;10468142;28;20036;-72
2023/06/25 15:42:03;;;;;;;5.63;4.68;;;;;;;38.08;47.25;101332.56;10451450;28;20041;-72
2023/06/25 15:47:04;;;;;;;4.70;4.20;;;;;;;38.31;45.82;101314.53;10469653;28;20075;-73
2023/06/25 15:52:04;;;;;;;6.45;4.85;;;;;;;38.66;45.69;101309.44;10462334;28;20485;-69
2023/06/25 15:57:05;;;;;;;5.15;4.65;;;;;;;38.61;45.98;101318.56;10461494;28;20460;-70
2023/06/25 16:02:05;;;;;;;4.93;4.40;;;;;;;38.28;44.79;101306.78;10457754;28;20068;-69
2023/06/25 16:07:06;;;;;;;4.50;4.03;;;;;;;38.16;45.74;101296.69;10451912;28;20037;-71
2023/06/25 16:12:06;;;;;;;7.78;5.72;;;;;;;38.48;46.42;101304.78;10397593;28;20038;-75
2023/06/25 16:17:07;;;;;;;5.75;4.25;;;;;;;38.84;45.45;101288.94;10392647;28;20045;-75
2023/06/25 16:22:09;;;;;;;4.78;4.03;;;;;;;37.52;45.35;101284.06;10412842;28;20063;-72
2023/06/25 16:27:10;;;;;;;4.78;4.00;;;;;;;37.07;46.61;101293.63;10404250;28;20065;-72
2023/06/25 16:32:10;;;;;;;4.68;4.25;;;;;;;36.84;47.81;101284.88;10381515;28;20042;-73
2023/06/25 16:37:11;;;;;;;6.60;3.83;;;;;;;36.13;48.62;101285.06;10386279;28;20041;-73
2023/06/25 16:42:12;;;;;;;6.75;4.05;;;;;;;36.57;47.98;101276.97;10395695;28;20038;-69
2023/06/25 16:47:12;;;;;;;5.85;4.07;;;;;;;36.31;47.41;101273.50;10375899;28;20060;-70
2023/06/25 16:52:13;;;;;;;5.95;4.25;;;;;;;35.47;49.25;101273.63;10384665;28;20062;-72
2023/06/25 16:57:13;;;;;;;5.68;4.47;;;;;;;34.27;51.50;101272.25;10432139;28;20145;-71
2023/06/25 17:02:13;;;;;;;5.45;4.30;;;;;;;33.01;54.17;101275.94;10473111;28;20414;-72
2023/06/25 17:07:14;;;;;;;5.93;3.95;;;;;;;32.41;53.92;101277.13;10433534;28;20536;-71
2023/06/25 17:12:14;;;;;;;6.40;4.70;;;;;;;31.89;55.85;101249.41;10450575;28;20451;-71
2023/06/25 17:17:15;;;;;;;6.55;4.93;;;;;;;31.43;58.60;101269.63;10457624;28;20421;-71
2023/06/25 17:22:15;;;;;;;4.85;4.28;;;;;;;30.84;59.75;101268.41;10458313;28;20048;-71
2023/06/25 17:27:16;;;;;;;5.13;4.18;;;;;;;30.52;60.07;101271.59;10457560;28;20072;-71
2023/06/25 17:32:16;;;;;;;5.15;4.18;;;;;;;30.29;62.10;101275.28;10442163;28;20037;-71
2023/06/25 17:37:17;;;;;;;5.80;4.43;;;;;;;30.04;62.93;101268.34;10453428;28;20033;-72
2023/06/25 17:42:17;;;;;;;5.97;4.45;;;;;;;29.81;64.34;101276.81;10456144;28;20555;-72
2023/06/25 17:47:18;;;;;;;6.65;5.18;;;;;;;29.59;66.20;101279.22;10456950;28;20036;-70
2023/06/25 17:52:18;;;;;;;4.68;3.88;;;;;;;29.47;67.87;101285.88;10457140;28;20049;-71
2023/06/25 17:57:18;;;;;;;6.70;4.32;;;;;;;29.28;68.41;101292.38;10455259;28;20044;-71
2023/06/25 18:02:19;;;;;;;7.53;4.78;;;;;;;29.15;68.57;101279.56;10455239;28;20056;-72
2023/06/25 18:07:19;;;;;;;4.22;3.78;;;;;;;28.80;69.92;101262.53;10469786;28;20041;-73
2023/06/25 18:12:20;;;;;;;6.60;4.78;;;;;;;28.79;71.03;101290.03;10430045;28;20033;-71
2023/06/25 18:17:20;;;;;;;5.93;4.45;;;;;;;28.67;71.85;101282.50;10438267;28;20029;-71
2023/06/25 18:22:21;;;;;;;6.20;4.43;;;;;;;28.53;73.27;101290.66;10455816;28;20041;-70
2023/06/25 18:27:21;;;;;;;5.43;4.60;;;;;;;28.35;74.47;101282.50;10451106;28;20052;-71
2023/06/25 18:32:22;;;;;;;5.50;4.95;;;;;;;28.15;75.67;101278.78;10443483;28;20033;-70
2023/06/25 18:37:22;;;;;;;6.05;4.65;;;;;;;28.00;77.59;101281.59;10454212;28;20033;-70
2023/06/25 18:42:23;;;;;;;6.03;4.78;;;;;;;27.89;79.00;101287.78;10454137;28;20044;-70
2023/06/25 18:47:23;;;;;;;7.13;5.20;;;;;;;27.71;80.26;101284.41;10455586;28;20040;-69
2023/06/25 18:52:24;;;;;;;6.32;4.80;;;;;;;27.49;82.73;101263.22;10454634;28;20385;-68
2023/06/25 18:57:24;;;;;;;7.15;4.35;;;;;;;27.32;85.00;101280.47;10440257;28;20109;-69
2023/06/25 19:02:25;;;;;;;6.07;4.88;;;;;;;26.61;87.19;101191.56;10454564;28;20091;-68
2023/06/25 19:07:25;;;;;;;7.93;4.90;;;;;;;26.76;91.05;101276.34;10453606;28;20044;-70
2023/06/25 19:12:26;;;;;;;8.52;4.57;;;;;;;26.56;93.27;101277.28;10453911;28;20033;-69
2023/06/25 19:17:26;;;;;;;6.40;4.68;;;;;;;26.33;94.80;101274.91;10454622;28;20037;-68
2023/06/25 19:22:27;;;;;;;7.15;4.63;;;;;;;26.18;98.29;101267.97;10455722;28;20110;-69
2023/06/25 19:27:27;;;;;;;7.53;5.05;;;;;;;26.01;99.63;101273.84;10460016;28;20037;-69
2023/06/25 19:32:28;;;;;;;6.93;4.90;;;;;;;25.85;100.00;101264.38;10460778;28;20119;-71
2023/06/25 19:37:28;;;;;;;6.70;4.18;;;;;;;25.69;100.00;101267.03;10460086;28;20033;-69
2023/06/25 19:42:32;;;;;;;6.25;4.85;;;;;;;25.47;100.00;101263.44;10460797;28;20041;-70
2023/06/25 19:47:32;;;;;;;7.15;4.43;;;;;;;25.29;100.00;101262.78;10462737;28;20063;-69
2023/06/25 19:52:33;;;;;;;7.15;4.53;;;;;;;25.09;100.00;101270.03;10460519;28;20041;-67
2023/06/25 19:57:35;;;;;;;9.90;4.95;;;;;;;24.90;100.00;101264.06;10458829;28;20052;-67
2023/06/25 20:02:36;;;;;;;6.28;4.25;;;;;;;24.59;100.00;101254.00;10461250;28;20047;-67
2023/06/25 20:07:36;;;;;;;6.80;4.68;;;;;;;24.51;100.00;101277.41;10448132;28;20034;-68
2023/06/25 20:12:37;;;;;;;8.48;4.50;;;;;;;24.36;100.00;101279.59;10459235;28;20280;-67
2023/06/25 20:17:37;;;;;;;7.60;4.80;;;;;;;24.19;100.00;101274.06;10461335;28;20057;-67
2023/06/25 20:22:38;;;;;;;5.47;4.40;;;;;;;24.02;100.00;101274.09;10460737;28;20040;-71
2023/06/25 20:27:38;;;;;;;7.70;4.38;;;;;;;23.69;100.00;101252.16;10473688;28;20131;-70
2023/06/25 20:32:39;;;;;;;5.72;5.03;;;;;;;23.65;100.00;101282.09;10459186;28;20089;-69
2023/06/25 20:37:39;;;;;;;7.38;4.90;;;;;;;23.50;100.00;101275.88;10457975;28;20036;-70
2023/06/25 20:42:40;;;;;;;6.22;4.88;;;;;;;23.37;100.00;101277.69;10459123;28;20049;-67
2023/06/25 20:47:41;;;;;;;6.57;4.82;;;;;;;23.26;100.00;101275.56;10460089;28;20033;-67
2023/06/25 20:52:41;;;;;;;6.53;4.85;;;;;;;23.13;100.00;101272.59;10459453;28;20096;-70
2023/06/25 20:57:42;;;;;;;6.38;5.63;;;;;;;23.01;100.00;101282.75;10473295;28;20576;-70
2023/06/25 21:02:42;;;;;;;7.18;5.05;;;;;;;22.87;100.00;101280.13;10457858;28;20033;-70
2023/06/25 21:07:43;;;;;;;6.65;4.85;;;;;;;22.74;100.00;101277.13;10457888;28;20033;-70
2023/06/25 21:12:43;;;;;;;6.05;4.75;;;;;;;22.60;100.00;101270.00;10456993;28;20037;-70
2023/06/25 21:17:44;;;;;;;5.95;4.75;;;;;;;22.58;100.00;101278.75;10457285;28;20037;-70
2023/06/25 21:22:45;;;;;;;8.82;5.32;;;;;;;22.47;100.00;101272.59;10457787;28;20040;-70
2023/06/25 21:27:45;;;;;;;5.93;4.63;;;;;;;22.35;100.00;101269.59;10457302;28;20037;-70
2023/06/25 21:32:46;;;;;;;7.13;5.28;;;;;;;22.28;100.00;101272.03;10457632;28;20048;-71
2023/06/25 21:37:46;;;;;;;6.30;5.10;;;;;;;22.19;100.00;101263.56;10457635;28;20040;-70
2023/06/25 21:42:47;;;;;;;6.43;4.70;;;;;;;22.13;100.00;101267.66;10457348;28;20045;-70
2023/06/25 21:47:47;;;;;;;9.55;5.10;;;;;;;22.04;100.00;101269.59;10458092;28;20526;-70
2023/06/25 21:52:48;;;;;;;7.72;5.60;;;;;;;21.93;100.00;101274.63;10457311;28;20036;-70
2023/06/25 21:57:48;;;;;;;6.90;5.05;;;;;;;21.83;100.00;101264.56;10456355;28;20044;-70
2023/06/25 22:02:50;;;;;;;6.43;5.07;;;;;;;21.76;100.00;101265.00;10454325;28;20132;-70
2023/06/25 22:07:51;;;;;;;7.95;5.78;;;;;;;21.61;100.00;101253.38;10455793;28;20433;-70
2023/06/25 22:12:51;;;;;;;8.35;5.63;;;;;;;21.50;100.00;101256.44;10470216;28;20064;-70
2023/06/25 22:17:51;;;;;;;10.15;6.47;;;;;;;21.42;100.00;101247.94;10456324;28;20425;-68
2023/06/25 22:22:52;;;;;;;8.48;6.13;;;;;;;21.33;100.00;101250.66;10454831;28;20037;-69
2023/06/25 22:27:54;;;;;;;8.20;6.43;;;;;;;21.24;100.00;101242.19;10452568;28;20056;-69
2023/06/25 22:32:55;;;;;;;7.05;5.70;;;;;;;21.15;100.00;101239.34;10455209;28;20033;-69
2023/06/25 22:37:55;;;;;;;7.65;6.00;;;;;;;21.10;100.00;101233.84;10453920;28;20044;-69
2023/06/25 22:42:56;;;;;;;9.35;6.82;;;;;;;21.04;100.00;101237.91;10454159;28;20065;-69